sensor_id;sensor_type;location;lat;lon;timestamp;P1;durP1;ratioP1;P2;durP2;ratioP2
11228;SDS011;5671;47.936;8.716;2024-02-28T00:00:42;15.10;;;12.60;;
11228;SDS011;5671;47.936;8.716;2024-02-28T00:03:09;14.87;;;13.40;;
11228;SDS011;5671;47.936;8.716;2024-02-28T00:05:36;14.20;;;12.70;;
11228;SDS011;5671;47.936;8.716;2024-02-28T00:08:03;15.00;;;13.23;;
11228;SDS011;5671;47.936;8.716;2024-02-28T00:10:31;13.73;;;12.40;;
11228;SDS011;5671;47.936;8.716;2024-02-28T00:12:58;15.00;;;12.80;;
11228;SDS011;5671;47.936;8.716;2024-02-28T00:15:25;13.57;;;12.17;;
11228;SDS011;5671;47.936;8.716;2024-02-28T00:17:54;21.63;;;19.53;;
11228;SDS011;5671;47.936;8.716;2024-02-28T00:20:21;14.57;;;13.03;;
11228;SDS011;5671;47.936;8.716;2024-02-28T00:22:49;15.70;;;13.93;;
11228;SDS011;5671;47.936;8.716;2024-02-28T00:25:15;13.27;;;11.97;;
11228;SDS011;5671;47.936;8.716;2024-02-28T00:27:42;15.03;;;13.33;;
11228;SDS011;5671;47.936;8.716;2024-02-28T00:30:11;14.93;;;13.33;;
11228;SDS011;5671;47.936;8.716;2024-02-28T00:32:38;13.23;;;11.93;;
11228;SDS011;5671;47.936;8.716;2024-02-28T00:35:07;13.97;;;12.57;;
11228;SDS011;5671;47.936;8.716;2024-02-28T00:37:34;13.07;;;11.80;;
11228;SDS011;5671;47.936;8.716;2024-02-28T00:40:01;13.27;;;11.77;;
11228;SDS011;5671;47.936;8.716;2024-02-28T00:42:27;13.70;;;12.40;;
11228;SDS011;5671;47.936;8.716;2024-02-28T00:44:54;16.13;;;14.53;;
11228;SDS011;5671;47.936;8.716;2024-02-28T00:47:21;14.90;;;13.40;;
11228;SDS011;5671;47.936;8.716;2024-02-28T00:49:48;13.33;;;12.10;;
11228;SDS011;5671;47.936;8.716;2024-02-28T00:52:16;13.13;;;11.87;;
11228;SDS011;5671;47.936;8.716;2024-02-28T00:54:43;16.27;;;14.00;;
11228;SDS011;5671;47.936;8.716;2024-02-28T00:57:10;25.93;;;23.23;;
11228;SDS011;5671;47.936;8.716;2024-02-28T00:59:37;15.87;;;14.20;;
11228;SDS011;5671;47.936;8.716;2024-02-28T01:02:03;13.70;;;12.30;;
11228;SDS011;5671;47.936;8.716;2024-02-28T01:04:30;14.97;;;12.93;;
11228;SDS011;5671;47.936;8.716;2024-02-28T01:06:57;13.70;;;12.30;;
11228;SDS011;5671;47.936;8.716;2024-02-28T01:09:25;13.83;;;12.43;;
11228;SDS011;5671;47.936;8.716;2024-02-28T01:11:52;16.07;;;12.90;;
11228;SDS011;5671;47.936;8.716;2024-02-28T01:14:19;15.50;;;13.90;;
11228;SDS011;5671;47.936;8.716;2024-02-28T01:16:46;15.07;;;13.47;;
11228;SDS011;5671;47.936;8.716;2024-02-28T01:19:14;14.27;;;12.77;;
11228;SDS011;5671;47.936;8.716;2024-02-28T01:21:42;15.13;;;13.50;;
11228;SDS011;5671;47.936;8.716;2024-02-28T01:24:09;14.60;;;13.10;;
11228;SDS011;5671;47.936;8.716;2024-02-28T01:26:37;15.03;;;13.50;;
11228;SDS011;5671;47.936;8.716;2024-02-28T01:29:04;14.27;;;12.87;;
11228;SDS011;5671;47.936;8.716;2024-02-28T01:31:31;14.40;;;13.00;;
11228;SDS011;5671;47.936;8.716;2024-02-28T01:33:57;14.43;;;12.93;;
11228;SDS011;5671;47.936;8.716;2024-02-28T01:36:24;12.87;;;11.57;;
11228;SDS011;5671;47.936;8.716;2024-02-28T01:38:51;12.57;;;11.37;;
11228;SDS011;5671;47.936;8.716;2024-02-28T01:41:19;12.97;;;11.53;;
11228;SDS011;5671;47.936;8.716;2024-02-28T01:43:47;11.70;;;10.50;;
11228;SDS011;5671;47.936;8.716;2024-02-28T01:46:19;12.40;;;11.20;;
11228;SDS011;5671;47.936;8.716;2024-02-28T01:48:48;11.37;;;10.20;;
11228;SDS011;5671;47.936;8.716;2024-02-28T01:51:15;10.83;;;9.73;;
11228;SDS011;5671;47.936;8.716;2024-02-28T01:53:43;11.83;;;10.60;;
11228;SDS011;5671;47.936;8.716;2024-02-28T01:56:10;12.63;;;10.57;;
11228;SDS011;5671;47.936;8.716;2024-02-28T01:58:38;11.43;;;9.83;;
11228;SDS011;5671;47.936;8.716;2024-02-28T02:01:07;10.80;;;9.70;;
11228;SDS011;5671;47.936;8.716;2024-02-28T02:03:35;10.47;;;9.47;;
11228;SDS011;5671;47.936;8.716;2024-02-28T02:06:02;11.13;;;10.03;;
11228;SDS011;5671;47.936;8.716;2024-02-28T02:08:29;11.00;;;9.90;;
11228;SDS011;5671;47.936;8.716;2024-02-28T02:10:57;9.57;;;8.63;;
11228;SDS011;5671;47.936;8.716;2024-02-28T02:13:24;10.97;;;9.87;;
11228;SDS011;5671;47.936;8.716;2024-02-28T02:15:51;10.00;;;9.00;;
11228;SDS011;5671;47.936;8.716;2024-02-28T02:18:19;10.13;;;9.00;;
11228;SDS011;5671;47.936;8.716;2024-02-28T02:20:50;10.20;;;9.03;;
11228;SDS011;5671;47.936;8.716;2024-02-28T02:23:24;10.43;;;9.43;;
11228;SDS011;5671;47.936;8.716;2024-02-28T02:25:51;10.47;;;8.47;;
11228;SDS011;5671;47.936;8.716;2024-02-28T02:28:18;10.23;;;9.23;;
11228;SDS011;5671;47.936;8.716;2024-02-28T02:30:45;9.97;;;8.97;;
11228;SDS011;5671;47.936;8.716;2024-02-28T02:33:12;11.03;;;9.83;;
11228;SDS011;5671;47.936;8.716;2024-02-28T02:35:39;11.13;;;9.97;;
11228;SDS011;5671;47.936;8.716;2024-02-28T02:38:06;12.33;;;11.03;;
11228;SDS011;5671;47.936;8.716;2024-02-28T02:40:34;11.13;;;9.93;;
11228;SDS011;5671;47.936;8.716;2024-02-28T02:43:01;11.97;;;10.77;;
11228;SDS011;5671;47.936;8.716;2024-02-28T02:45:28;12.77;;;11.47;;
11228;SDS011;5671;47.936;8.716;2024-02-28T02:47:54;13.03;;;11.63;;
11228;SDS011;5671;47.936;8.716;2024-02-28T02:50:21;12.77;;;11.47;;
11228;SDS011;5671;47.936;8.716;2024-02-28T02:52:48;12.83;;;11.53;;
11228;SDS011;5671;47.936;8.716;2024-02-28T02:55:15;13.17;;;11.87;;
11228;SDS011;5671;47.936;8.716;2024-02-28T02:57:43;13.00;;;11.70;;
11228;SDS011;5671;47.936;8.716;2024-02-28T03:00:11;13.03;;;11.67;;
11228;SDS011;5671;47.936;8.716;2024-02-28T03:02:38;14.27;;;12.87;;
11228;SDS011;5671;47.936;8.716;2024-02-28T03:05:06;12.70;;;11.20;;
11228;SDS011;5671;47.936;8.716;2024-02-28T03:07:33;14.77;;;12.00;;
11228;SDS011;5671;47.936;8.716;2024-02-28T03:10:00;14.70;;;12.60;;
11228;SDS011;5671;47.936;8.716;2024-02-28T03:12:28;13.40;;;12.07;;
11228;SDS011;5671;47.936;8.716;2024-02-28T03:14:56;14.07;;;12.57;;
11228;SDS011;5671;47.936;8.716;2024-02-28T03:17:23;12.93;;;11.63;;
11228;SDS011;5671;47.936;8.716;2024-02-28T03:19:50;12.10;;;10.80;;
11228;SDS011;5671;47.936;8.716;2024-02-28T03:22:17;12.87;;;11.53;;
11228;SDS011;5671;47.936;8.716;2024-02-28T03:24:44;12.73;;;11.43;;
11228;SDS011;5671;47.936;8.716;2024-02-28T03:27:10;12.37;;;11.03;;
11228;SDS011;5671;47.936;8.716;2024-02-28T03:29:37;11.73;;;10.53;;
11228;SDS011;5671;47.936;8.716;2024-02-28T03:32:06;11.47;;;10.27;;
11228;SDS011;5671;47.936;8.716;2024-02-28T03:34:33;13.57;;;10.20;;
11228;SDS011;5671;47.936;8.716;2024-02-28T03:37:00;11.90;;;10.53;;
11228;SDS011;5671;47.936;8.716;2024-02-28T03:39:27;11.53;;;10.43;;
11228;SDS011;5671;47.936;8.716;2024-02-28T03:41:53;11.53;;;10.13;;
11228;SDS011;5671;47.936;8.716;2024-02-28T03:44:21;11.07;;;9.83;;
11228;SDS011;5671;47.936;8.716;2024-02-28T03:46:48;11.23;;;10.03;;
11228;SDS011;5671;47.936;8.716;2024-02-28T03:49:16;11.47;;;10.37;;
11228;SDS011;5671;47.936;8.716;2024-02-28T03:51:43;12.60;;;11.30;;
11228;SDS011;5671;47.936;8.716;2024-02-28T03:54:10;12.00;;;10.80;;
11228;SDS011;5671;47.936;8.716;2024-02-28T03:56:37;11.40;;;10.20;;
11228;SDS011;5671;47.936;8.716;2024-02-28T03:59:04;12.10;;;10.90;;
11228;SDS011;5671;47.936;8.716;2024-02-28T04:01:30;12.13;;;10.83;;
11228;SDS011;5671;47.936;8.716;2024-02-28T04:03:57;11.97;;;10.77;;
11228;SDS011;5671;47.936;8.716;2024-02-28T04:06:26;12.67;;;11.37;;
11228;SDS011;5671;47.936;8.716;2024-02-28T04:08:52;11.53;;;10.40;;
11228;SDS011;5671;47.936;8.716;2024-02-28T04:11:19;12.00;;;10.67;;
11228;SDS011;5671;47.936;8.716;2024-02-28T04:13:46;12.30;;;11.00;;
11228;SDS011;5671;47.936;8.716;2024-02-28T04:16:13;12.30;;;11.00;;
11228;SDS011;5671;47.936;8.716;2024-02-28T04:18:40;12.47;;;10.97;;
11228;SDS011;5671;47.936;8.716;2024-02-28T04:21:07;11.87;;;10.67;;
11228;SDS011;5671;47.936;8.716;2024-02-28T04:23:35;11.30;;;10.10;;
11228;SDS011;5671;47.936;8.716;2024-02-28T04:26:03;11.83;;;10.27;;
11228;SDS011;5671;47.936;8.716;2024-02-28T04:28:30;12.43;;;11.07;;
11228;SDS011;5671;47.936;8.716;2024-02-28T04:30:56;11.80;;;10.60;;
11228;SDS011;5671;47.936;8.716;2024-02-28T04:33:23;13.20;;;9.20;;
11228;SDS011;5671;47.936;8.716;2024-02-28T04:35:50;10.20;;;9.20;;
11228;SDS011;5671;47.936;8.716;2024-02-28T04:38:17;11.33;;;8.23;;
11228;SDS011;5671;47.936;8.716;2024-02-28T04:40:45;8.63;;;7.73;;
11228;SDS011;5671;47.936;8.716;2024-02-28T04:43:12;9.33;;;7.77;;
11228;SDS011;5671;47.936;8.716;2024-02-28T04:45:39;9.23;;;8.33;;
11228;SDS011;5671;47.936;8.716;2024-02-28T04:48:06;9.60;;;8.60;;
11228;SDS011;5671;47.936;8.716;2024-02-28T04:50:33;9.80;;;8.80;;
11228;SDS011;5671;47.936;8.716;2024-02-28T04:53:00;14.93;;;9.40;;
11228;SDS011;5671;47.936;8.716;2024-02-28T04:55:27;10.60;;;9.40;;
11228;SDS011;5671;47.936;8.716;2024-02-28T04:57:55;9.20;;;8.30;;
11228;SDS011;5671;47.936;8.716;2024-02-28T05:00:22;11.57;;;8.57;;
11228;SDS011;5671;47.936;8.716;2024-02-28T05:02:49;9.57;;;8.57;;
11228;SDS011;5671;47.936;8.716;2024-02-28T05:05:16;9.70;;;8.70;;
11228;SDS011;5671;47.936;8.716;2024-02-28T05:07:43;10.17;;;8.83;;
11228;SDS011;5671;47.936;8.716;2024-02-28T05:13:10;9.77;;;8.77;;
11228;SDS011;5671;47.936;8.716;2024-02-28T05:15:36;9.93;;;7.43;;
11228;SDS011;5671;47.936;8.716;2024-02-28T05:18:04;8.83;;;7.93;;
11228;SDS011;5671;47.936;8.716;2024-02-28T05:20:30;8.37;;;7.43;;
11228;SDS011;5671;47.936;8.716;2024-02-28T05:22:57;10.90;;;8.30;;
11228;SDS011;5671;47.936;8.716;2024-02-28T05:25:24;8.47;;;7.67;;
11228;SDS011;5671;47.936;8.716;2024-02-28T05:27:51;9.60;;;8.60;;
11228;SDS011;5671;47.936;8.716;2024-02-28T05:30:19;8.50;;;7.53;;
11228;SDS011;5671;47.936;8.716;2024-02-28T05:32:46;9.37;;;7.80;;
11228;SDS011;5671;47.936;8.716;2024-02-28T05:35:13;9.50;;;8.50;;
11228;SDS011;5671;47.936;8.716;2024-02-28T05:37:40;8.27;;;7.40;;
11228;SDS011;5671;47.936;8.716;2024-02-28T05:40:07;9.43;;;8.27;;
11228;SDS011;5671;47.936;8.716;2024-02-28T05:42:35;12.00;;;8.00;;
11228;SDS011;5671;47.936;8.716;2024-02-28T05:45:02;9.20;;;8.10;;
11228;SDS011;5671;47.936;8.716;2024-02-28T05:47:30;9.23;;;8.30;;
11228;SDS011;5671;47.936;8.716;2024-02-28T05:49:57;8.93;;;7.90;;
11228;SDS011;5671;47.936;8.716;2024-02-28T05:52:24;9.93;;;8.63;;
11228;SDS011;5671;47.936;8.716;2024-02-28T05:54:52;10.60;;;9.33;;
11228;SDS011;5671;47.936;8.716;2024-02-28T05:57:19;11.83;;;9.53;;
11228;SDS011;5671;47.936;8.716;2024-02-28T05:59:45;10.33;;;8.97;;
11228;SDS011;5671;47.936;8.716;2024-02-28T06:02:12;15.57;;;9.13;;
11228;SDS011;5671;47.936;8.716;2024-02-28T06:04:40;9.40;;;8.50;;
11228;SDS011;5671;47.936;8.716;2024-02-28T06:07:07;10.07;;;9.00;;
11228;SDS011;5671;47.936;8.716;2024-02-28T06:09:34;10.17;;;8.80;;
11228;SDS011;5671;47.936;8.716;2024-02-28T06:12:01;11.40;;;10.20;;
11228;SDS011;5671;47.936;8.716;2024-02-28T06:14:28;11.13;;;9.40;;
11228;SDS011;5671;47.936;8.716;2024-02-28T06:16:55;10.13;;;8.97;;
11228;SDS011;5671;47.936;8.716;2024-02-28T06:19:22;10.83;;;8.87;;
11228;SDS011;5671;47.936;8.716;2024-02-28T06:21:50;13.00;;;8.97;;
11228;SDS011;5671;47.936;8.716;2024-02-28T06:24:17;10.83;;;9.20;;
11228;SDS011;5671;47.936;8.716;2024-02-28T06:26:43;11.03;;;9.37;;
11228;SDS011;5671;47.936;8.716;2024-02-28T06:29:10;10.70;;;9.10;;
11228;SDS011;5671;47.936;8.716;2024-02-28T06:31:37;12.00;;;9.53;;
11228;SDS011;5671;47.936;8.716;2024-02-28T06:34:04;11.87;;;8.90;;
11228;SDS011;5671;47.936;8.716;2024-02-28T06:36:31;9.90;;;8.90;;
11228;SDS011;5671;47.936;8.716;2024-02-28T06:38:59;10.27;;;9.10;;
11228;SDS011;5671;47.936;8.716;2024-02-28T06:41:26;11.03;;;9.93;;
11228;SDS011;5671;47.936;8.716;2024-02-28T06:43:52;11.70;;;10.00;;
11228;SDS011;5671;47.936;8.716;2024-02-28T06:46:19;12.60;;;10.50;;
11228;SDS011;5671;47.936;8.716;2024-02-28T06:48:46;12.10;;;10.47;;
11228;SDS011;5671;47.936;8.716;2024-02-28T06:51:13;12.73;;;10.70;;
11228;SDS011;5671;47.936;8.716;2024-02-28T06:53:42;11.77;;;10.53;;
11228;SDS011;5671;47.936;8.716;2024-02-28T06:56:10;14.27;;;10.00;;
11228;SDS011;5671;47.936;8.716;2024-02-28T06:58:37;15.90;;;10.00;;
11228;SDS011;5671;47.936;8.716;2024-02-28T07:01:04;11.93;;;9.23;;
11228;SDS011;5671;47.936;8.716;2024-02-28T07:03:31;15.00;;;9.03;;
11228;SDS011;5671;47.936;8.716;2024-02-28T07:05:58;11.77;;;9.50;;
11228;SDS011;5671;47.936;8.716;2024-02-28T07:08:25;10.97;;;9.80;;
11228;SDS011;5671;47.936;8.716;2024-02-28T07:10:51;13.17;;;9.97;;
11228;SDS011;5671;47.936;8.716;2024-02-28T07:13:20;13.50;;;10.23;;
11228;SDS011;5671;47.936;8.716;2024-02-28T07:15:47;12.93;;;9.90;;
11228;SDS011;5671;47.936;8.716;2024-02-28T07:18:14;11.93;;;10.00;;
11228;SDS011;5671;47.936;8.716;2024-02-28T07:20:42;10.83;;;9.73;;
11228;SDS011;5671;47.936;8.716;2024-02-28T07:23:08;10.83;;;9.73;;
11228;SDS011;5671;47.936;8.716;2024-02-28T07:25:35;11.10;;;10.00;;
11228;SDS011;5671;47.936;8.716;2024-02-28T07:28:02;12.30;;;10.37;;
11228;SDS011;5671;47.936;8.716;2024-02-28T07:30:31;13.20;;;11.13;;
11228;SDS011;5671;47.936;8.716;2024-02-28T07:32:58;12.90;;;11.47;;
11228;SDS011;5671;47.936;8.716;2024-02-28T07:35:25;14.57;;;11.63;;
11228;SDS011;5671;47.936;8.716;2024-02-28T07:37:52;11.03;;;9.60;;
11228;SDS011;5671;47.936;8.716;2024-02-28T07:40:18;14.93;;;10.60;;
11228;SDS011;5671;47.936;8.716;2024-02-28T07:42:45;11.20;;;10.10;;
11228;SDS011;5671;47.936;8.716;2024-02-28T07:45:12;13.57;;;10.13;;
11228;SDS011;5671;47.936;8.716;2024-02-28T07:47:40;11.20;;;10.00;;
11228;SDS011;5671;47.936;8.716;2024-02-28T07:50:07;13.53;;;10.73;;
11228;SDS011;5671;47.936;8.716;2024-02-28T07:52:34;11.50;;;9.87;;
11228;SDS011;5671;47.936;8.716;2024-02-28T07:55:02;12.57;;;10.60;;
11228;SDS011;5671;47.936;8.716;2024-02-28T07:57:30;11.70;;;10.47;;
11228;SDS011;5671;47.936;8.716;2024-02-28T07:59:58;11.40;;;10.20;;
11228;SDS011;5671;47.936;8.716;2024-02-28T08:02:25;16.43;;;10.93;;
11228;SDS011;5671;47.936;8.716;2024-02-28T08:04:53;13.20;;;11.83;;
11228;SDS011;5671;47.936;8.716;2024-02-28T08:07:20;13.37;;;11.10;;
11228;SDS011;5671;47.936;8.716;2024-02-28T08:09:47;12.53;;;9.67;;
11228;SDS011;5671;47.936;8.716;2024-02-28T08:12:14;11.30;;;10.10;;
11228;SDS011;5671;47.936;8.716;2024-02-28T08:14:41;12.57;;;10.37;;
11228;SDS011;5671;47.936;8.716;2024-02-28T08:17:07;17.20;;;12.50;;
11228;SDS011;5671;47.936;8.716;2024-02-28T08:19:34;17.67;;;12.37;;
11228;SDS011;5671;47.936;8.716;2024-02-28T08:22:02;23.10;;;13.20;;
11228;SDS011;5671;47.936;8.716;2024-02-28T08:24:30;28.60;;;14.07;;
11228;SDS011;5671;47.936;8.716;2024-02-28T08:26:56;19.57;;;12.93;;
11228;SDS011;5671;47.936;8.716;2024-02-28T08:29:23;21.07;;;13.40;;
11228;SDS011;5671;47.936;8.716;2024-02-28T08:31:50;21.47;;;13.00;;
11228;SDS011;5671;47.936;8.716;2024-02-28T08:34:17;13.50;;;11.30;;
11228;SDS011;5671;47.936;8.716;2024-02-28T08:36:44;14.43;;;11.70;;
11228;SDS011;5671;47.936;8.716;2024-02-28T08:39:12;13.50;;;11.87;;
11228;SDS011;5671;47.936;8.716;2024-02-28T08:41:39;13.70;;;12.40;;
11228;SDS011;5671;47.936;8.716;2024-02-28T08:44:06;14.77;;;12.50;;
11228;SDS011;5671;47.936;8.716;2024-02-28T08:46:32;12.73;;;11.43;;
11228;SDS011;5671;47.936;8.716;2024-02-28T08:48:59;13.63;;;12.17;;
11228;SDS011;5671;47.936;8.716;2024-02-28T08:51:26;13.00;;;11.10;;
11228;SDS011;5671;47.936;8.716;2024-02-28T08:53:53;12.60;;;11.27;;
11228;SDS011;5671;47.936;8.716;2024-02-28T08:56:21;11.60;;;10.40;;
11228;SDS011;5671;47.936;8.716;2024-02-28T08:58:48;12.20;;;11.00;;
11228;SDS011;5671;47.936;8.716;2024-02-28T09:01:15;11.23;;;10.03;;
11228;SDS011;5671;47.936;8.716;2024-02-28T09:03:42;11.67;;;10.53;;
11228;SDS011;5671;47.936;8.716;2024-02-28T09:06:09;11.70;;;10.30;;
11228;SDS011;5671;47.936;8.716;2024-02-28T09:08:37;11.30;;;10.13;;
11228;SDS011;5671;47.936;8.716;2024-02-28T09:11:04;11.27;;;9.50;;
11228;SDS011;5671;47.936;8.716;2024-02-28T09:13:32;10.33;;;9.33;;
11228;SDS011;5671;47.936;8.716;2024-02-28T09:16:00;10.83;;;9.73;;
11228;SDS011;5671;47.936;8.716;2024-02-28T09:18:27;10.67;;;9.60;;
11228;SDS011;5671;47.936;8.716;2024-02-28T09:20:54;10.37;;;9.23;;
11228;SDS011;5671;47.936;8.716;2024-02-28T09:23:21;11.33;;;8.50;;
11228;SDS011;5671;47.936;8.716;2024-02-28T09:25:48;9.67;;;8.20;;
11228;SDS011;5671;47.936;8.716;2024-02-28T09:28:17;9.67;;;8.73;;
11228;SDS011;5671;47.936;8.716;2024-02-28T09:30:45;8.73;;;7.83;;
11228;SDS011;5671;47.936;8.716;2024-02-28T09:33:15;9.13;;;8.23;;
11228;SDS011;5671;47.936;8.716;2024-02-28T09:35:44;11.00;;;8.47;;
11228;SDS011;5671;47.936;8.716;2024-02-28T09:38:11;8.93;;;8.00;;
11228;SDS011;5671;47.936;8.716;2024-02-28T09:40:38;8.73;;;7.83;;
11228;SDS011;5671;47.936;8.716;2024-02-28T09:43:05;9.00;;;8.20;;
11228;SDS011;5671;47.936;8.716;2024-02-28T09:45:37;9.63;;;8.63;;
11228;SDS011;5671;47.936;8.716;2024-02-28T09:48:07;9.87;;;8.87;;
11228;SDS011;5671;47.936;8.716;2024-02-28T09:50:36;11.13;;;8.93;;
11228;SDS011;5671;47.936;8.716;2024-02-28T09:53:04;9.60;;;8.70;;
11228;SDS011;5671;47.936;8.716;2024-02-28T09:55:31;10.13;;;8.63;;
11228;SDS011;5671;47.936;8.716;2024-02-28T09:57:58;9.37;;;8.37;;
11228;SDS011;5671;47.936;8.716;2024-02-28T10:00:27;8.77;;;7.87;;
11228;SDS011;5671;47.936;8.716;2024-02-28T10:02:54;9.07;;;8.20;;
11228;SDS011;5671;47.936;8.716;2024-02-28T10:05:25;10.63;;;9.00;;
11228;SDS011;5671;47.936;8.716;2024-02-28T10:07:53;8.90;;;8.00;;
11228;SDS011;5671;47.936;8.716;2024-02-28T10:10:21;10.07;;;8.97;;
11228;SDS011;5671;47.936;8.716;2024-02-28T10:12:48;11.53;;;9.10;;
11228;SDS011;5671;47.936;8.716;2024-02-28T10:15:15;9.97;;;8.97;;
11228;SDS011;5671;47.936;8.716;2024-02-28T10:17:42;10.97;;;9.67;;
11228;SDS011;5671;47.936;8.716;2024-02-28T10:20:09;10.73;;;9.63;;
11228;SDS011;5671;47.936;8.716;2024-02-28T10:22:38;10.40;;;9.20;;
11228;SDS011;5671;47.936;8.716;2024-02-28T10:25:06;9.93;;;8.93;;
11228;SDS011;5671;47.936;8.716;2024-02-28T10:27:34;11.07;;;9.97;;
11228;SDS011;5671;47.936;8.716;2024-02-28T10:30:01;9.80;;;8.80;;
11228;SDS011;5671;47.936;8.716;2024-02-28T10:32:30;11.83;;;9.03;;
11228;SDS011;5671;47.936;8.716;2024-02-28T10:34:57;10.53;;;9.53;;
11228;SDS011;5671;47.936;8.716;2024-02-28T10:37:25;10.63;;;9.60;;
11228;SDS011;5671;47.936;8.716;2024-02-28T10:39:56;10.63;;;9.53;;
11228;SDS011;5671;47.936;8.716;2024-02-28T10:42:25;11.93;;;9.60;;
11228;SDS011;5671;47.936;8.716;2024-02-28T10:44:53;10.57;;;9.37;;
11228;SDS011;5671;47.936;8.716;2024-02-28T10:47:24;10.87;;;9.77;;
11228;SDS011;5671;47.936;8.716;2024-02-28T10:49:52;11.30;;;10.10;;
11228;SDS011;5671;47.936;8.716;2024-02-28T10:52:20;10.37;;;9.27;;
11228;SDS011;5671;47.936;8.716;2024-02-28T10:54:48;10.77;;;9.77;;
11228;SDS011;5671;47.936;8.716;2024-02-28T10:57:22;10.70;;;9.63;;
11228;SDS011;5671;47.936;8.716;2024-02-28T10:59:51;11.33;;;10.03;;
11228;SDS011;5671;47.936;8.716;2024-02-28T11:02:19;11.37;;;10.27;;
11228;SDS011;5671;47.936;8.716;2024-02-28T11:04:46;12.33;;;10.17;;
11228;SDS011;5671;47.936;8.716;2024-02-28T11:07:19;12.13;;;9.93;;
11228;SDS011;5671;47.936;8.716;2024-02-28T11:09:46;14.10;;;9.90;;
11228;SDS011;5671;47.936;8.716;2024-02-28T11:12:25;11.10;;;9.97;;
11228;SDS011;5671;47.936;8.716;2024-02-28T11:14:59;12.57;;;9.90;;
11228;SDS011;5671;47.936;8.716;2024-02-28T11:17:27;10.43;;;9.33;;
11228;SDS011;5671;47.936;8.716;2024-02-28T11:19:55;11.73;;;10.53;;
11228;SDS011;5671;47.936;8.716;2024-02-28T11:22:23;10.73;;;9.63;;
11228;SDS011;5671;47.936;8.716;2024-02-28T11:24:53;13.23;;;9.80;;
11228;SDS011;5671;47.936;8.716;2024-02-28T11:27:20;12.93;;;9.40;;
11228;SDS011;5671;47.936;8.716;2024-02-28T11:29:49;11.10;;;9.57;;
11228;SDS011;5671;47.936;8.716;2024-02-28T11:32:15;10.87;;;9.43;;
11228;SDS011;5671;47.936;8.716;2024-02-28T11:34:42;11.70;;;10.50;;
11228;SDS011;5671;47.936;8.716;2024-02-28T11:37:10;11.40;;;10.10;;
11228;SDS011;5671;47.936;8.716;2024-02-28T11:39:37;10.87;;;9.77;;
11228;SDS011;5671;47.936;8.716;2024-02-28T11:42:08;12.00;;;9.80;;
11228;SDS011;5671;47.936;8.716;2024-02-28T11:44:36;11.10;;;10.00;;
11228;SDS011;5671;47.936;8.716;2024-02-28T11:47:04;11.30;;;10.07;;
11228;SDS011;5671;47.936;8.716;2024-02-28T11:49:32;9.97;;;8.93;;
11228;SDS011;5671;47.936;8.716;2024-02-28T11:51:59;11.83;;;9.60;;
11228;SDS011;5671;47.936;8.716;2024-02-28T11:54:26;9.67;;;8.70;;
11228;SDS011;5671;47.936;8.716;2024-02-28T11:56:52;10.97;;;9.73;;
11228;SDS011;5671;47.936;8.716;2024-02-28T11:59:19;10.47;;;9.20;;
11228;SDS011;5671;47.936;8.716;2024-02-28T12:01:46;11.03;;;9.60;;
11228;SDS011;5671;47.936;8.716;2024-02-28T12:04:14;10.53;;;9.50;;
11228;SDS011;5671;47.936;8.716;2024-02-28T12:06:42;9.93;;;8.93;;
11228;SDS011;5671;47.936;8.716;2024-02-28T12:09:09;11.17;;;10.07;;
11228;SDS011;5671;47.936;8.716;2024-02-28T12:11:39;11.07;;;10.07;;
11228;SDS011;5671;47.936;8.716;2024-02-28T12:14:06;11.57;;;9.87;;
11228;SDS011;5671;47.936;8.716;2024-02-28T12:16:35;10.97;;;9.47;;
11228;SDS011;5671;47.936;8.716;2024-02-28T12:19:02;11.00;;;8.60;;
11228;SDS011;5671;47.936;8.716;2024-02-28T12:21:31;11.10;;;9.90;;
11228;SDS011;5671;47.936;8.716;2024-02-28T12:23:58;10.17;;;8.87;;
11228;SDS011;5671;47.936;8.716;2024-02-28T12:26:26;11.63;;;9.70;;
11228;SDS011;5671;47.936;8.716;2024-02-28T12:28:53;9.47;;;8.50;;
11228;SDS011;5671;47.936;8.716;2024-02-28T12:31:20;10.07;;;9.07;;
11228;SDS011;5671;47.936;8.716;2024-02-28T12:33:47;9.87;;;8.97;;
11228;SDS011;5671;47.936;8.716;2024-02-28T12:36:14;10.60;;;9.27;;
11228;SDS011;5671;47.936;8.716;2024-02-28T12:38:42;10.50;;;9.10;;
11228;SDS011;5671;47.936;8.716;2024-02-28T12:41:09;10.20;;;9.20;;
11228;SDS011;5671;47.936;8.716;2024-02-28T12:43:36;10.70;;;9.23;;
11228;SDS011;5671;47.936;8.716;2024-02-28T12:46:04;10.67;;;9.57;;
11228;SDS011;5671;47.936;8.716;2024-02-28T12:48:31;10.20;;;9.20;;
11228;SDS011;5671;47.936;8.716;2024-02-28T12:51:03;9.90;;;8.53;;
11228;SDS011;5671;47.936;8.716;2024-02-28T12:53:31;9.97;;;8.07;;
11228;SDS011;5671;47.936;8.716;2024-02-28T12:55:59;12.73;;;9.40;;
11228;SDS011;5671;47.936;8.716;2024-02-28T12:58:26;9.77;;;8.60;;
11228;SDS011;5671;47.936;8.716;2024-02-28T13:00:53;9.73;;;8.73;;
11228;SDS011;5671;47.936;8.716;2024-02-28T13:03:20;9.63;;;8.37;;
11228;SDS011;5671;47.936;8.716;2024-02-28T13:05:47;9.70;;;8.70;;
11228;SDS011;5671;47.936;8.716;2024-02-28T13:08:14;9.33;;;7.90;;
11228;SDS011;5671;47.936;8.716;2024-02-28T13:10:41;9.30;;;8.40;;
11228;SDS011;5671;47.936;8.716;2024-02-28T13:13:10;9.63;;;8.63;;
11228;SDS011;5671;47.936;8.716;2024-02-28T13:15:37;9.30;;;8.40;;
11228;SDS011;5671;47.936;8.716;2024-02-28T13:18:04;11.07;;;8.43;;
11228;SDS011;5671;47.936;8.716;2024-02-28T13:20:34;9.80;;;8.27;;
11228;SDS011;5671;47.936;8.716;2024-02-28T13:23:03;10.63;;;8.43;;
11228;SDS011;5671;47.936;8.716;2024-02-28T13:25:30;9.70;;;8.33;;
11228;SDS011;5671;47.936;8.716;2024-02-28T13:27:57;9.43;;;8.23;;
11228;SDS011;5671;47.936;8.716;2024-02-28T13:30:25;8.77;;;7.97;;
11228;SDS011;5671;47.936;8.716;2024-02-28T13:32:52;8.97;;;7.80;;
11228;SDS011;5671;47.936;8.716;2024-02-28T13:35:18;8.57;;;7.53;;
11228;SDS011;5671;47.936;8.716;2024-02-28T13:37:45;8.60;;;7.70;;
11228;SDS011;5671;47.936;8.716;2024-02-28T13:40:12;9.30;;;7.63;;
11228;SDS011;5671;47.936;8.716;2024-02-28T13:42:39;8.53;;;7.63;;
11228;SDS011;5671;47.936;8.716;2024-02-28T13:45:06;8.17;;;7.37;;
11228;SDS011;5671;47.936;8.716;2024-02-28T13:47:36;8.47;;;7.67;;
11228;SDS011;5671;47.936;8.716;2024-02-28T13:50:02;7.93;;;7.13;;
11228;SDS011;5671;47.936;8.716;2024-02-28T13:52:30;8.57;;;7.67;;
11228;SDS011;5671;47.936;8.716;2024-02-28T13:54:57;8.87;;;7.90;;
11228;SDS011;5671;47.936;8.716;2024-02-28T13:57:23;9.10;;;8.10;;
11228;SDS011;5671;47.936;8.716;2024-02-28T13:59:50;8.00;;;7.20;;
11228;SDS011;5671;47.936;8.716;2024-02-28T14:02:19;8.93;;;7.97;;
11228;SDS011;5671;47.936;8.716;2024-02-28T14:04:52;8.43;;;7.53;;
11228;SDS011;5671;47.936;8.716;2024-02-28T14:07:20;8.17;;;7.17;;
11228;SDS011;5671;47.936;8.716;2024-02-28T14:09:46;8.60;;;7.70;;
11228;SDS011;5671;47.936;8.716;2024-02-28T14:12:13;8.10;;;7.30;;
11228;SDS011;5671;47.936;8.716;2024-02-28T14:14:40;7.70;;;6.90;;
11228;SDS011;5671;47.936;8.716;2024-02-28T14:17:07;8.40;;;7.60;;
11228;SDS011;5671;47.936;8.716;2024-02-28T14:19:34;7.73;;;7.00;;
11228;SDS011;5671;47.936;8.716;2024-02-28T14:22:02;8.47;;;7.67;;
11228;SDS011;5671;47.936;8.716;2024-02-28T14:24:29;9.80;;;8.40;;
11228;SDS011;5671;47.936;8.716;2024-02-28T14:26:56;8.27;;;7.37;;
11228;SDS011;5671;47.936;8.716;2024-02-28T14:29:23;8.87;;;7.97;;
11228;SDS011;5671;47.936;8.716;2024-02-28T14:31:49;8.87;;;7.73;;
11228;SDS011;5671;47.936;8.716;2024-02-28T14:34:16;9.07;;;8.17;;
11228;SDS011;5671;47.936;8.716;2024-02-28T14:36:43;9.30;;;8.40;;
11228;SDS011;5671;47.936;8.716;2024-02-28T14:39:11;9.30;;;8.40;;
11228;SDS011;5671;47.936;8.716;2024-02-28T14:41:40;8.30;;;7.50;;
11228;SDS011;5671;47.936;8.716;2024-02-28T14:44:08;9.00;;;8.10;;
11228;SDS011;5671;47.936;8.716;2024-02-28T14:46:36;9.73;;;8.77;;
11228;SDS011;5671;47.936;8.716;2024-02-28T14:49:02;9.60;;;8.30;;